Time;durP1;ratioP1;P1;durP2;ratioP2;P2;SDS_P1;SDS_P2;PMS_P1;PMS_P2;Temp;Humidity;BMP_temperature;BMP_pressure;BME280_temperature;BME280_humidity;BME280_pressure;Samples;Min_cycle;Max_cycle;Signal;HPM_P1;HPM_P2
2022/12/16 00:02:16;;;;;;;79.82;53.83;;;0.70;99.90;;;;;;5036260;28;20048;-64
2022/12/16 00:04:41;;;;;;;83.53;54.08;;;-0.40;99.90;;;;;;5038813;28;20041;-66
2022/12/16 00:07:07;;;;;;;88.30;60.10;;;-0.40;99.90;;;;;;5020356;28;20052;-63
2022/12/16 00:09:33;;;;;;;76.25;51.95;;;1.10;99.90;;;;;;5035612;28;20080;-64
2022/12/16 00:11:58;;;;;;;79.57;53.08;;;0.80;99.90;;;;;;5037784;28;20052;-63
2022/12/16 00:14:26;;;;;;;78.70;55.30;;;1.00;99.90;;;;;;5036586;28;20041;-63
2022/12/16 00:16:51;;;;;;;73.97;51.95;;;-0.40;99.90;;;;;;5035718;28;20045;-64
2022/12/16 00:19:17;;;;;;;67.47;49.72;;;1.00;99.90;;;;;;5038376;28;20044;-64
2022/12/16 00:21:43;;;;;;;68.63;49.72;;;-0.20;99.90;;;;;;5038612;28;20045;-63
2022/12/16 00:24:08;;;;;;;76.88;51.90;;;-0.30;99.90;;;;;;5018489;28;20056;-63
2022/12/16 00:26:35;;;;;;;70.95;51.33;;;-0.30;99.90;;;;;;5038907;28;20115;-64
2022/12/16 00:29:04;;;;;;;61.80;42.47;;;1.30;99.90;;;;;;5036521;28;20055;-64
2022/12/16 00:31:30;;;;;;;37.25;25.52;;;1.00;99.90;;;;;;5043638;28;20454;-63
2022/12/16 00:33:56;;;;;;;30.77;23.77;;;0.10;99.90;;;;;;5038262;28;20036;-64
2022/12/16 00:36:22;;;;;;;30.83;22.13;;;0.60;99.90;;;;;;5019242;28;20040;-64
2022/12/16 00:38:58;;;;;;;29.75;23.70;;;1.10;99.90;;;;;;5047579;28;20599;-64
2022/12/16 00:41:24;;;;;;;28.77;22.35;;;2.30;99.90;;;;;;5018999;28;20511;-65
2022/12/16 00:43:49;;;;;;;24.92;19.70;;;1.40;99.90;;;;;;5036268;28;20048;-65
2022/12/16 00:46:16;;;;;;;22.00;18.00;;;1.50;99.90;;;;;;5015633;28;20234;-65
2022/12/16 00:48:42;;;;;;;20.98;16.10;;;2.50;99.90;;;;;;5019028;28;20056;-63
2022/12/16 00:51:08;;;;;;;19.75;15.65;;;1.60;99.90;;;;;;5018818;28;20264;-65
2022/12/16 00:53:34;;;;;;;15.85;12.93;;;2.00;99.90;;;;;;5036738;28;20045;-64
2022/12/16 00:56:05;;;;;;;17.65;13.52;;;2.20;99.90;;;;;;5035090;28;20052;-65
2022/12/16 00:58:31;;;;;;;17.20;13.25;;;2.50;99.90;;;;;;5038089;28;20052;-65
2022/12/16 01:00:56;;;;;;;17.73;14.13;;;1.80;99.90;;;;;;5036065;28;20731;-66
2022/12/16 01:03:22;;;;;;;15.60;11.07;;;2.40;99.90;;;;;;5015919;28;20075;-65
2022/12/16 01:05:48;;;;;;;13.55;10.50;;;2.30;99.90;;;;;;5038139;28;20051;-64
2022/12/16 01:08:14;;;;;;;14.90;11.05;;;2.00;99.90;;;;;;5035149;28;20045;-64
2022/12/16 01:10:40;;;;;;;18.95;11.95;;;2.10;99.90;;;;;;5034448;28;20394;-63
2022/12/16 01:13:05;;;;;;;14.98;12.70;;;2.00;99.90;;;;;;5019662;28;20063;-64
2022/12/16 01:15:31;;;;;;;18.60;13.93;;;2.50;99.90;;;;;;5038522;28;20120;-64
2022/12/16 01:17:57;;;;;;;17.08;12.63;;;2.00;99.90;;;;;;5034100;28;20572;-65
2022/12/16 01:20:23;;;;;;;18.42;14.13;;;2.40;99.90;;;;;;5035257;28;20045;-64
2022/12/16 01:22:48;;;;;;;21.00;13.43;;;2.00;99.90;;;;;;5002796;28;20077;-64
2022/12/16 01:25:16;;;;;;;16.40;12.38;;;2.40;99.90;;;;;;5018681;28;20133;-64
2022/12/16 01:27:42;;;;;;;16.27;11.75;;;2.30;99.90;;;;;;5036708;28;20041;-65
2022/12/16 01:30:09;;;;;;;16.35;9.55;;;2.30;99.90;;;;;;5018932;28;20049;-65
2022/12/16 01:32:35;;;;;;;14.45;9.68;;;2.10;99.90;;;;;;5035178;28;20048;-65
2022/12/16 01:35:01;;;;;;;17.02;9.48;;;2.40;99.90;;;;;;5045412;28;20049;-64
2022/12/16 01:37:27;;;;;;;16.25;8.48;;;2.30;99.90;;;;;;5034959;28;20084;-64
2022/12/16 01:39:53;;;;;;;15.43;9.23;;;2.50;99.90;;;;;;5035470;28;20390;-64
2022/12/16 01:42:21;;;;;;;17.75;9.73;;;2.40;99.90;;;;;;5017406;28;20056;-65
2022/12/16 01:44:49;;;;;;;16.92;9.90;;;2.20;99.90;;;;;;5036047;28;20043;-65
2022/12/16 01:47:19;;;;;;;14.18;8.40;;;2.30;99.90;;;;;;5036145;28;20044;-65
2022/12/16 01:50:01;;;;;;;16.45;9.32;;;2.70;99.90;;;;;;5014113;28;20075;-64
2022/12/16 01:52:32;;;;;;;21.02;10.68;;;2.70;99.90;;;;;;5035647;28;20045;-65
2022/12/16 01:55:02;;;;;;;17.00;9.95;;;2.20;99.90;;;;;;5036000;28;20320;-64
2022/12/16 01:57:43;;;;;;;17.13;10.50;;;2.30;99.90;;;;;;5033666;28;20149;-64
2022/12/16 02:00:09;;;;;;;16.92;12.50;;;2.80;99.90;;;;;;5035431;28;20124;-66
2022/12/16 02:02:36;;;;;;;17.08;12.35;;;2.80;99.90;;;;;;5037463;28;20844;-66
2022/12/16 02:05:20;;;;;;;19.20;13.52;;;2.70;99.90;;;;;;5034135;28;20036;-65
2022/12/16 02:07:54;;;;;;;20.58;12.40;;;2.50;99.90;;;;;;5068162;28;20597;-64
2022/12/16 02:10:30;;;;;;;15.95;12.73;;;2.70;99.90;;;;;;5040077;28;20049;-65
2022/12/16 02:13:19;;;;;;;18.80;13.65;;;2.70;99.90;;;;;;5038731;28;20041;-63
2022/12/16 02:16:07;;;;;;;19.90;15.40;;;2.80;99.90;;;;;;5040471;28;20037;-64
2022/12/16 02:18:51;;;;;;;24.70;15.25;;;2.80;99.90;;;;;;5039244;28;20133;-63
2022/12/16 02:21:42;;;;;;;23.73;16.77;;;2.70;99.90;;;;;;5037316;28;20124;-63
2022/12/16 02:24:14;;;;;;;28.90;17.75;;;2.80;99.90;;;;;;5038134;28;20049;-65
2022/12/16 02:27:16;;;;;;;28.35;19.98;;;2.80;99.90;;;;;;5038515;28;20415;-65
2022/12/16 02:30:40;;;;;;;28.60;23.27;;;3.00;99.90;;;;;;5020027;28;20115;-64
2022/12/16 02:33:17;;;;;;;33.67;24.27;;;2.70;99.90;;;;;;4964444;28;20232;-64
2022/12/16 02:35:43;;;;;;;29.67;25.30;;;2.50;99.90;;;;;;5035564;28;20045;-63
2022/12/16 02:38:20;;;;;;;31.60;27.48;;;2.90;99.90;;;;;;5036930;28;20045;-63
2022/12/16 02:40:48;;;;;;;34.92;26.95;;;2.70;99.90;;;;;;5037474;28;20363;-63
2022/12/16 02:43:29;;;;;;;35.13;27.45;;;3.00;99.90;;;;;;5037913;28;20079;-63
2022/12/16 02:45:55;;;;;;;36.60;27.20;;;2.30;99.90;;;;;;5037754;28;20347;-63
2022/12/16 02:48:20;;;;;;;43.58;28.48;;;2.40;99.90;;;;;;5038720;28;20358;-63
2022/12/16 02:50:49;;;;;;;37.22;25.58;;;2.50;99.90;;;;;;5021668;28;20120;-64
2022/12/16 02:53:17;;;;;;;32.13;19.75;;;2.30;99.90;;;;;;5036361;28;20044;-64
2022/12/16 02:56:01;;;;;;;27.80;17.98;;;2.70;99.90;;;;;;5040932;28;20568;-64
2022/12/16 02:58:43;;;;;;;30.27;19.10;;;2.80;99.90;;;;;;5038231;28;20051;-63
2022/12/16 03:01:16;;;;;;;28.10;19.13;;;2.30;99.90;;;;;;5038543;28;20045;-63
2022/12/16 03:03:46;;;;;;;42.15;29.90;;;2.70;99.90;;;;;;5038618;28;20577;-64
2022/12/16 03:06:16;;;;;;;44.45;33.55;;;3.00;99.90;;;;;;5017973;28;20037;-63
2022/12/16 03:08:46;;;;;;;53.97;37.05;;;2.20;99.90;;;;;;5035606;28;20083;-63
2022/12/16 03:11:12;;;;;;;51.63;37.00;;;2.90;99.90;;;;;;5037473;28;20041;-63
2022/12/16 03:13:43;;;;;;;50.88;37.00;;;2.70;99.90;;;;;;5036399;28;20045;-64
2022/12/16 03:16:12;;;;;;;60.92;38.50;;;2.60;99.90;;;;;;5037199;28;20091;-63
2022/12/16 03:18:41;;;;;;;49.53;38.35;;;2.10;99.90;;;;;;5038888;28;20033;-64
2022/12/16 03:21:08;;;;;;;49.38;35.20;;;2.00;99.90;;;;;;5037336;28;20049;-63
2022/12/16 03:24:06;;;;;;;45.45;36.60;;;2.60;99.90;;;;;;5037431;28;20513;-63
2022/12/16 03:26:39;;;;;;;55.00;41.55;;;1.80;99.90;;;;;;5036137;28;20083;-63
2022/12/16 03:29:14;;;;;;;53.10;40.42;;;1.40;99.90;;;;;;5018732;28;20045;-63
2022/12/16 03:31:56;;;;;;;46.65;33.63;;;1.80;99.90;;;;;;5036430;28;20553;-62
2022/12/16 03:34:49;;;;;;;49.05;33.38;;;1.30;99.90;;;;;;5037985;28;20067;-63
2022/12/16 03:37:14;;;;;;;46.25;32.88;;;0.90;99.90;;;;;;5035014;28;20045;-64
2022/12/16 03:39:47;;;;;;;55.20;43.05;;;0.90;99.90;;;;;;5035058;28;20126;-66
2022/12/16 03:42:14;;;;;;;49.50;36.33;;;0.90;99.90;;;;;;5036010;28;20049;-65
2022/12/16 03:44:42;;;;;;;61.78;46.00;;;1.90;99.90;;;;;;5035721;28;20417;-65
2022/12/16 03:47:08;;;;;;;64.95;45.45;;;0.70;99.90;;;;;;5036418;28;20044;-65
2022/12/16 03:49:34;;;;;;;65.30;45.15;;;1.70;99.90;;;;;;5018395;28;20037;-65
2022/12/16 03:51:59;;;;;;;50.42;32.25;;;0.70;99.90;;;;;;5018964;28;20033;-64
2022/12/16 03:54:25;;;;;;;35.17;25.67;;;1.80;99.90;;;;;;5019003;28;20480;-64
2022/12/16 03:56:51;;;;;;;52.47;35.40;;;0.50;99.90;;;;;;5035625;28;20520;-65
2022/12/16 03:59:17;;;;;;;44.60;32.25;;;1.50;99.90;;;;;;5036054;28;20182;-65
2022/12/16 04:01:43;;;;;;;51.97;35.58;;;1.50;99.90;;;;;;5019707;28;20052;-66
2022/12/16 04:04:09;;;;;;;32.90;21.65;;;0.20;99.90;;;;;;5004249;28;20041;-66
2022/12/16 04:06:35;;;;;;;46.65;32.00;;;0.10;99.90;;;;;;5065619;28;20520;-65
2022/12/16 04:09:01;;;;;;;44.40;28.48;;;0.40;99.90;;;;;;5034608;28;20044;-66
2022/12/16 04:25:31;;;;;;;87.95;59.45;;;1.10;99.90;;;;;;5033547;28;20581;-65
2022/12/16 04:27:57;;;;;;;77.53;50.58;;;-0.30;99.90;;;;;;5034277;28;20037;-64
2022/12/16 04:30:23;;;;;;;99.65;67.05;;;-0.30;99.90;;;;;;5019671;28;20722;-65
